Time;durP1;ratioP1;P1;durP2;ratioP2;P2;SDS_P1;SDS_P2;PMS_P1;PMS_P2;Temp;Humidity;BMP_temperature;BMP_pressure;BME280_temperature;BME280_humidity;BME280_pressure;Samples;Min_cycle;Max_cycle;Signal;HPM_P1;HPM_P2
2023/06/16 00:00:33;;;;;;;;;;;;;;;21.88;37.55;101346.41;7352318;19;19927;-59
2023/06/16 00:02:58;;;;;;;;;;;;;;;21.84;37.50;101334.25;7344356;19;20007;-59
2023/06/16 00:05:23;;;;;;;;;;;;;;;21.80;37.71;101345.19;7351814;19;20032;-58
2023/06/16 00:07:48;;;;;;;;;;;;;;;21.75;37.71;101348.13;7345058;19;19926;-56
2023/06/16 00:10:14;;;;;;;;;;;;;;;21.71;37.42;101333.28;7348344;19;19926;-59
2023/06/16 00:12:40;;;;;;;;;;;;;;;21.67;37.41;101340.56;7347061;19;19945;-59
2023/06/16 00:15:08;;;;;;;;;;;;;;;21.62;37.84;101336.47;7350003;19;20293;-59
2023/06/16 00:17:36;;;;;;;;;;;;;;;21.59;37.50;101336.63;7342366;19;20565;-59
2023/06/16 00:20:03;;;;;;;;;;;;;;;21.54;37.98;101333.41;7347350;19;19918;-59
2023/06/16 00:22:28;;;;;;;;;;;;;;;21.49;37.81;101329.22;7347195;19;19922;-59
2023/06/16 00:24:53;;;;;;;;;;;;;;;21.45;38.01;101327.69;7349389;19;19926;-59
2023/06/16 00:27:19;;;;;;;;;;;;;;;21.40;37.97;101327.09;7348835;19;20222;-58
2023/06/16 00:29:44;;;;;;;;;;;;;;;21.37;37.76;101324.63;7342618;19;19923;-59
2023/06/16 00:32:10;;;;;;;;;;;;;;;21.33;37.66;101323.06;7345928;19;19929;-59
2023/06/16 00:34:35;;;;;;;;;;;;;;;21.29;37.93;101320.66;7344928;19;19919;-59
2023/06/16 00:37:00;;;;;;;;;;;;;;;21.24;38.17;101320.94;7343148;19;20677;-59
2023/06/16 00:39:25;;;;;;;;;;;;;;;21.19;38.24;101320.34;7347680;19;19926;-59
2023/06/16 00:41:51;;;;;;;;;;;;;;;21.15;38.22;101324.13;7347360;19;20338;-59
2023/06/16 00:44:16;;;;;;;;;;;;;;;21.11;38.18;101319.91;7343814;19;19919;-59
2023/06/16 00:46:41;;;;;;;;;;;;;;;21.06;38.04;101319.31;7345966;19;19923;-58
2023/06/16 00:49:06;;;;;;;;;;;;;;;21.02;38.21;101317.78;7347114;19;19919;-59
2023/06/16 00:51:32;;;;;;;;;;;;;;;20.98;38.38;101315.31;7348203;19;19944;-59
2023/06/16 00:53:59;;;;;;;;;;;;;;;20.93;38.52;101309.41;7345269;19;20777;-59
2023/06/16 00:56:24;;;;;;;;;;;;;;;20.89;38.50;101305.19;7347578;19;20717;-59
2023/06/16 00:58:50;;;;;;;;;;;;;;;20.85;38.54;101303.66;7343368;19;19918;-59
2023/06/16 01:01:16;;;;;;;;;;;;;;;20.81;38.13;101301.25;7349706;19;19919;-59
2023/06/16 01:03:41;;;;;;;;;;;;;;;20.77;38.54;101303.22;7355731;19;19954;-59
2023/06/16 01:06:17;;;;;;;;;;;;;;;20.73;38.54;101301.66;7352260;19;19919;-58
2023/06/16 01:08:47;;;;;;;;;;;;;;;20.68;38.70;101298.41;7355363;19;20708;-59
2023/06/16 01:11:20;;;;;;;;;;;;;;;20.64;38.27;101299.53;7349429;19;21347;-58
2023/06/16 01:13:52;;;;;;;;;;;;;;;20.59;38.74;101298.94;7351636;19;20358;-59
2023/06/16 01:16:22;;;;;;;;;;;;;;;20.55;38.75;101303.56;7351099;19;19945;-59
2023/06/16 01:18:51;;;;;;;;;;;;;;;20.51;38.42;101301.16;7354793;19;19918;-59
2023/06/16 01:21:37;;;;;;;;;;;;;;;20.40;38.87;101288.44;7350768;19;19929;-59
2023/06/16 01:24:11;;;;;;;;;;;;;;;20.42;38.76;101298.00;7350326;19;20640;-58
2023/06/16 01:26:38;;;;;;;;;;;;;;;20.04;39.01;101243.56;7350890;19;19922;-58
2023/06/16 01:29:06;;;;;;;;;;;;;;;20.34;38.67;101300.25;7351742;19;20335;-58
2023/06/16 01:31:32;;;;;;;;;;;;;;;20.29;38.77;101296.97;7352037;19;19923;-58
2023/06/16 01:33:59;;;;;;;;;;;;;;;20.25;38.78;101295.44;7354152;19;19922;-58
2023/06/16 01:36:25;;;;;;;;;;;;;;;20.21;38.63;101293.88;7350733;19;19955;-59
2023/06/16 01:38:51;;;;;;;;;;;;;;;20.17;38.72;101289.66;7352814;19;20564;-58
2023/06/16 01:41:18;;;;;;;;;;;;;;;20.12;38.75;101289.06;7353242;19;20025;-58
2023/06/16 01:43:44;;;;;;;;;;;;;;;20.08;39.19;101292.84;7355977;19;19918;-59
2023/06/16 01:46:10;;;;;;;;;;;;;;;20.04;38.89;101291.28;7355608;19;21839;-59
2023/06/16 01:48:35;;;;;;;;;;;;;;;19.99;39.06;101288.84;7358990;19;19998;-59
2023/06/16 01:51:01;;;;;;;;;;;;;;;19.94;38.85;101305.00;7354196;19;19921;-59
2023/06/16 01:53:26;;;;;;;;;;;;;;;19.90;39.33;101306.09;7357325;19;19948;-59
2023/06/16 01:55:52;;;;;;;;;;;;;;;19.86;39.46;101309.84;7354675;19;19998;-59
2023/06/16 01:58:21;;;;;;;;;;;;;;;19.82;39.29;101308.31;7353360;19;19943;-58
2023/06/16 02:01:04;;;;;;;;;;;;;;;19.77;39.54;101310.34;7352570;19;19965;-59
2023/06/16 02:03:50;;;;;;;;;;;;;;;19.73;38.91;101303.47;7354350;19;19907;-59
2023/06/16 02:06:18;;;;;;;;;;;;;;;19.68;39.14;101302.84;7355000;19;19939;-59
2023/06/16 02:08:45;;;;;;;;;;;;;;;19.64;39.48;101303.94;7356211;19;20340;-59
2023/06/16 02:11:11;;;;;;;;;;;;;;;19.59;39.21;101303.28;7347114;19;19972;-59
2023/06/16 02:13:36;;;;;;;;;;;;;;;19.56;39.73;101308.72;7356310;19;19994;-59
2023/06/16 02:16:02;;;;;;;;;;;;;;;19.50;39.28;101301.94;7347923;19;19918;-59
2023/06/16 02:18:27;;;;;;;;;;;;;;;19.45;39.48;101299.53;7356234;19;20794;-59
2023/06/16 02:20:53;;;;;;;;;;;;;;;19.42;39.69;101297.03;7351535;19;19918;-59
2023/06/16 02:23:18;;;;;;;;;;;;;;;19.38;39.85;101290.19;7356480;19;19919;-59
2023/06/16 02:25:43;;;;;;;;;;;;;;;19.34;39.46;101285.09;7350260;19;19919;-59
2023/06/16 02:28:09;;;;;;;;;;;;;;;19.30;39.65;101289.69;7353790;19;19922;-59
2023/06/16 02:30:34;;;;;;;;;;;;;;;19.26;39.92;101290.81;7351370;19;20567;-59
2023/06/16 02:33:00;;;;;;;;;;;;;;;19.21;39.80;101284.88;7355300;19;19919;-59
2023/06/16 02:35:26;;;;;;;;;;;;;;;19.18;39.61;101285.03;7336438;19;20494;-59
2023/06/16 02:37:52;;;;;;;;;;;;;;;19.14;40.05;101289.59;7354537;19;19918;-59
2023/06/16 02:40:18;;;;;;;;;;;;;;;19.11;40.10;101288.88;7350190;19;19915;-59
2023/06/16 02:42:43;;;;;;;;;;;;;;;19.07;39.78;101285.53;7354526;19;19914;-59
2023/06/16 02:45:08;;;;;;;;;;;;;;;19.04;39.91;101279.53;7352373;19;19914;-60
2023/06/16 02:47:33;;;;;;;;;;;;;;;19.02;40.11;101292.00;7350196;19;19992;-59
2023/06/16 02:49:59;;;;;;;;;;;;;;;18.99;39.85;101289.50;7352379;19;19948;-59
2023/06/16 02:52:25;;;;;;;;;;;;;;;18.93;39.92;101282.69;7355551;19;19927;-59
2023/06/16 02:54:50;;;;;;;;;;;;;;;18.91;39.75;101292.53;7340766;19;20581;-59
2023/06/16 02:57:15;;;;;;;;;;;;;;;18.88;40.13;101288.22;7351249;19;19922;-59
2023/06/16 02:59:41;;;;;;;;;;;;;;;18.85;39.90;101280.41;7352625;19;19983;-59
2023/06/16 03:02:06;;;;;;;;;;;;;;;18.81;39.88;101281.50;7354996;19;19922;-59
2023/06/16 03:04:34;;;;;;;;;;;;;;;18.79;39.88;101286.00;7351593;19;19919;-59
2023/06/16 03:07:02;;;;;;;;;;;;;;;18.77;39.61;101290.53;7354400;19;19922;-60
2023/06/16 03:09:28;;;;;;;;;;;;;;;18.74;39.91;101295.94;7347562;19;19915;-59
2023/06/16 03:11:54;;;;;;;;;;;;;;;18.72;40.20;101281.09;7352718;19;19942;-59
2023/06/16 03:14:20;;;;;;;;;;;;;;;18.70;40.60;101283.78;7346606;19;19940;-59
2023/06/16 03:16:47;;;;;;;;;;;;;;;18.68;40.47;101283.00;7352443;19;19923;-59
2023/06/16 03:19:13;;;;;;;;;;;;;;;18.66;40.67;101282.22;7330900;19;20538;-59
2023/06/16 03:21:39;;;;;;;;;;;;;;;18.32;40.94;101230.03;7349380;19;19934;-59
2023/06/16 03:24:05;;;;;;;;;;;;;;;18.62;40.95;101281.50;7353247;19;19943;-58
2023/06/16 03:26:31;;;;;;;;;;;;;;;18.61;41.05;101274.50;7353146;19;19923;-59
2023/06/16 03:28:58;;;;;;;;;;;;;;;18.60;40.78;101271.88;7352587;19;20745;-59
2023/06/16 03:31:23;;;;;;;;;;;;;;;18.57;40.70;101267.63;7354778;19;20798;-58
2023/06/16 03:33:49;;;;;;;;;;;;;;;18.56;41.01;101265.06;7348524;19;19918;-59
2023/06/16 03:36:14;;;;;;;;;;;;;;;18.54;41.10;101261.59;7354451;19;19915;-59
2023/06/16 03:38:40;;;;;;;;;;;;;;;18.52;40.71;101255.53;7351449;19;19930;-59
2023/06/16 03:41:05;;;;;;;;;;;;;;;18.50;41.06;101260.03;7350242;19;19930;-59
2023/06/16 03:43:30;;;;;;;;;;;;;;;18.47;41.04;101254.91;7356372;19;19935;-59
2023/06/16 03:45:56;;;;;;;;;;;;;;;18.44;40.95;101247.94;7356319;19;19919;-59
2023/06/16 03:48:21;;;;;;;;;;;;;;;18.41;41.01;101248.97;7356124;19;19955;-59
2023/06/16 03:50:47;;;;;;;;;;;;;;;18.37;40.64;101255.31;7353598;19;19923;-58
2023/06/16 03:53:12;;;;;;;;;;;;;;;18.34;40.75;101266.03;7355110;19;19923;-58
2023/06/16 03:55:37;;;;;;;;;;;;;;;18.29;41.27;101254.81;7352211;19;19946;-59
2023/06/16 03:58:03;;;;;;;;;;;;;;;18.26;41.12;101249.69;7356758;19;19922;-59
2023/06/16 04:00:28;;;;;;;;;;;;;;;18.25;41.46;101245.31;7351844;19;20553;-60
2023/06/16 04:02:53;;;;;;;;;;;;;;;18.21;41.48;101241.09;7354785;19;19922;-59
2023/06/16 04:05:19;;;;;;;;;;;;;;;18.20;41.42;101239.38;7355961;19;19927;-59
2023/06/16 04:07:45;;;;;;;;;;;;;;;18.20;41.43;101247.31;7358672;19;19922;-59
2023/06/16 04:10:10;;;;;;;;;;;;;;;18.17;41.72;101238.66;7355368;19;19930;-59
2023/06/16 04:12:35;;;;;;;;;;;;;;;18.16;41.49;101245.75;7355296;19;19932;-59
2023/06/16 04:15:01;;;;;;;;;;;;;;;18.15;41.54;101238.75;7352303;19;19934;-58
2023/06/16 04:17:27;;;;;;;;;;;;;;;18.14;41.52;101242.28;7357625;19;19930;-59
2023/06/16 04:19:52;;;;;;;;;;;;;;;18.13;41.94;101245.88;7355778;19;20526;-59
2023/06/16 04:22:17;;;;;;;;;;;;;;;18.13;42.00;101235.28;7353757;19;19995;-59
2023/06/16 04:24:42;;;;;;;;;;;;;;;18.12;41.68;101230.94;7350573;19;19915;-59
2023/06/16 04:27:08;;;;;;;;;;;;;;;18.11;41.68;101232.72;7354451;19;19998;-59
2023/06/16 04:29:41;;;;;;;;;;;;;;;18.11;41.94;101237.16;7349479;19;19919;-58
2023/06/16 04:32:11;;;;;;;;;;;;;;;18.10;42.17;101231.03;7352290;19;19915;-59
2023/06/16 04:34:37;;;;;;;;;;;;;;;18.10;42.26;101235.44;7360536;19;19930;-59
2023/06/16 04:37:02;;;;;;;;;;;;;;;18.09;42.06;101239.00;7365605;19;20367;-59
2023/06/16 04:39:28;;;;;;;;;;;;;;;18.09;41.82;101236.34;7362168;19;19933;-59
2023/06/16 04:41:53;;;;;;;;;;;;;;;18.08;42.23;101232.84;7362999;19;19919;-59
2023/06/16 04:44:18;;;;;;;;;;;;;;;18.09;41.81;101231.06;7354933;19;19935;-59
2023/06/16 04:46:44;;;;;;;;;;;;;;;18.08;42.32;101232.84;7364483;19;19919;-59
2023/06/16 04:49:10;;;;;;;;;;;;;;;18.08;42.08;101230.22;7359488;19;19919;-59
2023/06/16 04:51:35;;;;;;;;;;;;;;;18.08;42.02;101232.84;7363198;19;19911;-59
2023/06/16 04:54:00;;;;;;;;;;;;;;;18.09;41.94;101234.56;7359642;19;19947;-59
2023/06/16 04:56:25;;;;;;;;;;;;;;;18.08;41.89;101232.00;7357791;19;19923;-59
2023/06/16 04:58:51;;;;;;;;;;;;;;;18.09;42.08;101245.13;7358230;19;19939;-57
2023/06/16 05:01:16;;;;;;;;;;;;;;;18.10;41.88;101246.03;7358977;19;19942;-59
2023/06/16 05:03:41;;;;;;;;;;;;;;;18.11;41.83;101248.59;7360073;19;19915;-59
2023/06/16 05:06:06;;;;;;;;;;;;;;;18.12;41.97;101252.09;7359286;19;19938;-58
2023/06/16 05:08:32;;;;;;;;;;;;;;;18.13;41.86;101251.16;7363109;19;20183;-59
2023/06/16 05:10:57;;;;;;;;;;;;;;;18.14;41.91;101248.44;7362180;19;20014;-60
2023/06/16 05:13:23;;;;;;;;;;;;;;;18.15;41.89;101249.31;7357434;19;20701;-59
2023/06/16 05:15:48;;;;;;;;;;;;;;;18.17;42.29;101249.25;7356688;19;20697;-58
2023/06/16 05:18:13;;;;;;;;;;;;;;;18.18;42.39;101246.50;7361789;19;19979;-59
2023/06/16 05:20:39;;;;;;;;;;;;;;;18.19;41.92;101245.56;7358266;19;19986;-59
2023/06/16 05:23:04;;;;;;;;;;;;;;;18.22;42.40;101245.44;7360110;19;20263;-59
2023/06/16 05:25:30;;;;;;;;;;;;;;;18.24;42.10;101242.72;7361488;19;20059;-59
2023/06/16 05:27:55;;;;;;;;;;;;;;;18.27;42.12;101247.88;7336818;19;21558;-56
2023/06/16 05:30:20;;;;;;;;;;;;;;;18.31;42.31;101245.03;7356682;19;20027;-58
2023/06/16 05:32:45;;;;;;;;;;;;;;;18.33;42.28;101243.16;7355159;19;19994;-59
2023/06/16 05:35:11;;;;;;;;;;;;;;;18.38;42.55;101246.44;7360467;19;19934;-59
2023/06/16 05:37:36;;;;;;;;;;;;;;;18.42;42.42;101242.75;7358740;19;20447;-60
2023/06/16 05:40:01;;;;;;;;;;;;;;;18.49;42.36;101245.09;7358159;19;19919;-59
2023/06/16 05:42:27;;;;;;;;;;;;;;;18.54;42.47;101251.03;7350812;19;19911;-59
2023/06/16 05:44:52;;;;;;;;;;;;;;;18.61;42.41;101252.47;7360123;19;19961;-59
2023/06/16 05:47:17;;;;;;;;;;;;;;;18.67;42.35;101246.88;7358600;19;19964;-59
2023/06/16 05:49:43;;;;;;;;;;;;;;;18.74;42.71;101253.63;7359378;19;20255;-59
2023/06/16 05:52:08;;;;;;;;;;;;;;;18.79;42.42;101259.53;7360786;19;20844;-59
2023/06/16 05:54:34;;;;;;;;;;;;;;;18.87;42.62;101264.47;7356404;19;19915;-58
2023/06/16 05:56:59;;;;;;;;;;;;;;;18.93;42.26;101266.81;7358484;19;19922;-59
2023/06/16 05:59:25;;;;;;;;;;;;;;;19.02;42.26;101262.88;7350287;19;19915;-58
2023/06/16 06:01:51;;;;;;;;;;;;;;;19.07;41.84;101260.88;7359295;19;19982;-59
2023/06/16 06:04:19;;;;;;;;;;;;;;;19.13;42.30;101266.72;7360252;19;20476;-59
2023/06/16 06:06:44;;;;;;;;;;;;;;;19.18;42.30;101263.84;7358935;19;19919;-59
2023/06/16 06:09:09;;;;;;;;;;;;;;;19.24;42.28;101274.13;7361227;19;20248;-60
2023/06/16 06:11:36;;;;;;;;;;;;;;;19.28;42.15;101265.09;7357613;19;19930;-59
2023/06/16 06:14:01;;;;;;;;;;;;;;;19.35;41.80;101265.63;7356286;19;19956;-59
2023/06/16 06:16:27;;;;;;;;;;;;;;;19.40;42.00;101264.47;7358333;19;19915;-59
2023/06/16 06:18:52;;;;;;;;;;;;;;;19.47;41.83;101264.19;7359454;19;19929;-59
2023/06/16 06:21:17;;;;;;;;;;;;;;;19.52;41.73;101268.31;7347212;19;19922;-59
2023/06/16 06:23:43;;;;;;;;;;;;;;;19.58;42.19;101267.13;7357374;19;19915;-59
2023/06/16 06:26:08;;;;;;;;;;;;;;;19.65;42.35;101263.25;7356260;19;20840;-60
2023/06/16 06:28:33;;;;;;;;;;;;;;;19.70;42.25;101269.16;7357902;19;19923;-59
2023/06/16 06:30:59;;;;;;;;;;;;;;;19.77;41.99;101249.38;7354417;19;19919;-59
2023/06/16 06:33:24;;;;;;;;;;;;;;;19.86;42.35;101261.28;7356499;19;19922;-59
2023/06/16 06:35:49;;;;;;;;;;;;;;;19.95;42.17;101260.78;7353698;19;19927;-59
2023/06/16 06:38:15;;;;;;;;;;;;;;;20.02;42.26;101256.00;7352841;19;19919;-59
2023/06/16 06:40:40;;;;;;;;;;;;;;;20.12;42.17;101259.88;7357550;19;20645;-59
2023/06/16 06:43:05;;;;;;;;;;;;;;;20.22;41.94;101261.09;7354788;19;20363;-59
2023/06/16 06:45:31;;;;;;;;;;;;;;;20.32;42.23;101258.81;7356947;19;19915;-59
2023/06/16 06:47:56;;;;;;;;;;;;;;;20.41;41.98;101259.16;7353779;19;19922;-60
2023/06/16 06:50:21;;;;;;;;;;;;;;;20.50;41.73;101257.00;7359105;19;19963;-59
2023/06/16 06:52:46;;;;;;;;;;;;;;;20.58;41.88;101255.63;7350653;19;19915;-59
2023/06/16 06:55:12;;;;;;;;;;;;;;;20.67;42.12;101256.91;7353373;19;19910;-59
2023/06/16 06:57:38;;;;;;;;;;;;;;;20.73;42.04;101259.19;7357471;19;19922;-60
2023/06/16 07:00:04;;;;;;;;;;;;;;;20.78;41.56;101267.75;7356304;19;19951;-59
2023/06/16 07:02:29;;;;;;;;;;;;;;;20.84;41.93;101263.94;7351469;19;19922;-59
2023/06/16 07:04:55;;;;;;;;;;;;;;;20.87;41.79;101272.56;7355136;19;19919;-59
2023/06/16 07:07:20;;;;;;;;;;;;;;;20.92;41.90;101264.34;7352434;19;19923;-59
2023/06/16 07:09:46;;;;;;;;;;;;;;;20.97;42.01;101271.09;7356098;19;20335;-59
2023/06/16 07:12:11;;;;;;;;;;;;;;;21.03;42.04;101261.06;7351985;19;19941;-56
2023/06/16 07:14:37;;;;;;;;;;;;;;;21.08;41.92;101266.97;7352910;19;19938;-60
2023/06/16 07:17:02;;;;;;;;;;;;;;;21.14;41.99;101271.94;7353464;19;21442;-59
2023/06/16 07:19:27;;;;;;;;;;;;;;;21.20;41.70;101276.91;7355298;19;19907;-59
2023/06/16 07:21:53;;;;;;;;;;;;;;;21.18;41.69;101249.56;7356440;19;20251;-59
2023/06/16 07:24:19;;;;;;;;;;;;;;;21.34;42.14;101277.00;7356243;19;19922;-60
2023/06/16 07:26:45;;;;;;;;;;;;;;;21.40;41.68;101281.09;7354104;19;19925;-59
2023/06/16 07:29:10;;;;;;;;;;;;;;;21.46;41.87;101286.88;7352672;19;19962;-60
2023/06/16 07:31:35;;;;;;;;;;;;;;;21.54;41.59;101288.22;7355665;19;19947;-60
2023/06/16 07:34:00;;;;;;;;;;;;;;;21.60;41.76;101293.19;7356855;19;19930;-59
2023/06/16 07:36:26;;;;;;;;;;;;;;;21.65;41.71;101285.81;7350765;19;20667;-59
2023/06/16 07:38:51;;;;;;;;;;;;;;;21.71;42.01;101288.09;7354413;19;19918;-59
2023/06/16 07:41:16;;;;;;;;;;;;;;;21.75;41.27;101286.97;7351006;19;20367;-59
2023/06/16 07:43:42;;;;;;;;;;;;;;;21.79;41.84;101283.16;7353600;19;19923;-59
2023/06/16 07:46:07;;;;;;;;;;;;;;;21.83;41.31;101284.69;7350437;19;19926;-59
2023/06/16 07:48:32;;;;;;;;;;;;;;;21.86;40.72;101287.16;7353357;19;19946;-59
2023/06/16 07:50:57;;;;;;;;;;;;;;;21.89;41.07;101284.31;7349603;19;19982;-59
2023/06/16 07:53:23;;;;;;;;;;;;;;;21.91;41.09;101286.88;7351729;19;20482;-59
2023/06/16 07:55:48;;;;;;;;;;;;;;;21.92;41.37;101284.13;7348924;19;19959;-60
2023/06/16 07:58:13;;;;;;;;;;;;;;;21.85;41.33;101272.16;7338291;19;19935;-59
2023/06/16 08:00:39;;;;;;;;;;;;;;;21.96;40.68;101280.34;7352925;19;19926;-59
2023/06/16 08:03:04;;;;;;;;;;;;;;;21.98;41.32;101275.78;7355439;19;20450;-60
2023/06/16 08:05:29;;;;;;;;;;;;;;;21.99;41.79;101266.84;7355959;19;19919;-59
2023/06/16 08:07:55;;;;;;;;;;;;;;;22.05;41.60;101262.09;7357652;19;19915;-60
2023/06/16 08:10:21;;;;;;;;;;;;;;;22.10;40.64;101260.88;7363383;19;19926;-59
2023/06/16 08:12:49;;;;;;;;;;;;;;;22.16;41.82;101255.22;7362772;19;19937;-59
2023/06/16 08:15:15;;;;;;;;;;;;;;;22.25;41.09;101259.06;7361766;19;19927;-60
2023/06/16 08:17:41;;;;;;;;;;;;;;;22.32;41.42;101257.75;7361285;19;19925;-60
2023/06/16 08:20:07;;;;;;;;;;;;;;;22.41;41.30;101248.34;7357958;19;20026;-59
2023/06/16 08:22:32;;;;;;;;;;;;;;;22.48;41.47;101250.50;7363472;19;19982;-59
2023/06/16 08:24:57;;;;;;;;;;;;;;;22.57;41.30;101248.22;7361290;19;20002;-60
2023/06/16 08:27:23;;;;;;;;;;;;;;;22.65;41.73;101245.91;7361843;19;20449;-59
2023/06/16 08:29:50;;;;;;;;;;;;;;;22.72;41.34;101253.41;7361577;19;19918;-60
2023/06/16 08:32:15;;;;;;;;;;;;;;;22.80;41.54;101244.91;7358485;19;19919;-59
2023/06/16 08:34:40;;;;;;;;;;;;;;;22.90;41.45;101246.03;7362125;19;20282;-59
2023/06/16 08:37:07;;;;;;;;;;;;;;;23.00;41.56;101247.13;7359709;19;20436;-60
2023/06/16 08:39:32;;;;;;;;;;;;;;;23.12;42.44;101236.66;7360839;19;19919;-59
2023/06/16 08:41:58;;;;;;;;;;;;;;;23.21;42.18;101236.84;7360570;19;20358;-58
2023/06/16 08:44:24;;;;;;;;;;;;;;;23.34;42.14;101236.91;7361467;19;20491;-58
2023/06/16 08:46:50;;;;;;;;;;;;;;;23.44;41.22;101240.66;7351465;19;20320;-58
2023/06/16 08:49:16;;;;;;;;;;;;;;;23.55;41.52;101231.91;7356827;19;19919;-59
2023/06/16 08:51:47;;;;;;;;;;;;;;;23.65;40.84;101226.84;7360946;19;19947;-59
2023/06/16 08:54:13;;;;;;;;;;;;;;;23.73;40.98;101230.69;7359317;19;20010;-58
2023/06/16 08:56:39;;;;;;;;;;;;;;;23.78;41.29;101231.22;7361051;19;20022;-58
2023/06/16 08:59:05;;;;;;;;;;;;;;;23.83;41.17;101230.91;7353152;19;19923;-58
2023/06/16 09:01:33;;;;;;;;;;;;;;;23.88;41.61;101227.91;7356096;19;21308;-59
2023/06/16 09:03:58;;;;;;;;;;;;;;;23.92;41.44;101224.91;7360056;19;20629;-58
2023/06/16 09:06:25;;;;;;;;;;;;;;;23.96;41.47;101220.22;7361062;19;19949;-58
2023/06/16 09:08:50;;;;;;;;;;;;;;;23.99;41.69;101218.19;7360328;19;19926;-58
2023/06/16 09:11:23;;;;;;;;;;;;;;;24.03;40.96;101219.69;7360119;19;20460;-59
2023/06/16 09:13:49;;;;;;;;;;;;;;;24.11;40.47;101223.59;7358366;19;19926;-58
2023/06/16 09:16:17;;;;;;;;;;;;;;;24.18;40.71;101224.88;7360311;19;19958;-58
2023/06/16 09:18:44;;;;;;;;;;;;;;;24.24;40.48;101229.78;7357199;19;20006;-59
2023/06/16 09:21:11;;;;;;;;;;;;;;;24.28;41.03;101223.25;7355576;19;19914;-57
2023/06/16 09:23:39;;;;;;;;;;;;;;;24.32;40.93;101217.56;7362067;19;19923;-60
2023/06/16 09:26:13;;;;;;;;;;;;;;;24.40;41.54;101217.06;7360994;19;19930;-59
2023/06/16 09:28:39;;;;;;;;;;;;;;;24.50;41.16;101215.44;7357403;19;20383;-58
2023/06/16 09:31:08;;;;;;;;;;;;;;;24.62;41.13;101213.66;7355854;19;20016;-59
2023/06/16 09:33:34;;;;;;;;;;;;;;;24.73;40.54;101215.53;7357297;19;19946;-59
2023/06/16 09:35:59;;;;;;;;;;;;;;;24.82;40.50;101212.19;7350446;19;19970;-58
2023/06/16 09:38:25;;;;;;;;;;;;;;;24.95;40.33;101209.47;7357683;19;20700;-58
2023/06/16 09:40:50;;;;;;;;;;;;;;;25.06;40.31;101217.53;7359394;19;19982;-59
2023/06/16 09:43:15;;;;;;;;;;;;;;;25.14;40.60;101211.63;7348577;19;19922;-59
2023/06/16 09:45:41;;;;;;;;;;;;;;;25.21;40.12;101204.88;7356164;19;19927;-59
2023/06/16 09:48:08;;;;;;;;;;;;;;;25.27;40.32;101215.09;7361269;19;20450;-58
2023/06/16 09:50:34;;;;;;;;;;;;;;;25.31;40.08;101217.41;7354354;19;19983;-60
2023/06/16 09:53:03;;;;;;;;;;;;;;;25.34;40.07;101203.81;7357777;19;19986;-58
2023/06/16 09:55:28;;;;;;;;;;;;;;;25.36;40.08;101211.72;7356785;19;19927;-59
2023/06/16 09:57:54;;;;;;;;;;;;;;;25.40;40.17;101210.50;7357766;19;19914;-59
2023/06/16 10:00:20;;;;;;;;;;;;;;;25.44;39.88;101211.09;7353006;19;19915;-58
2023/06/16 10:02:47;;;;;;;;;;;;;;;25.48;39.88;101207.22;7356601;19;19919;-58
2023/06/16 10:05:14;;;;;;;;;;;;;;;25.56;39.95;101203.00;7358090;19;19962;-57
2023/06/16 10:07:43;;;;;;;;;;;;;;;25.63;39.95;101209.56;7357097;19;19929;-59
2023/06/16 10:10:10;;;;;;;;;;;;;;;25.72;40.00;101201.81;7360622;19;20336;-59
2023/06/16 10:12:36;;;;;;;;;;;;;;;25.77;39.52;101207.66;7359989;19;20248;-58
2023/06/16 10:15:02;;;;;;;;;;;;;;;25.83;39.93;101204.50;7351718;19;19915;-60
2023/06/16 10:17:30;;;;;;;;;;;;;;;25.88;39.56;101200.50;7358785;19;19915;-59
2023/06/16 10:19:56;;;;;;;;;;;;;;;25.92;39.34;101195.75;7357041;19;19919;-59
2023/06/16 10:22:22;;;;;;;;;;;;;;;25.95;39.10;101198.16;7356832;19;19911;-59
2023/06/16 10:24:47;;;;;;;;;;;;;;;25.96;39.42;101202.56;7358598;19;19927;-59
2023/06/16 10:27:13;;;;;;;;;;;;;;;25.99;39.25;101205.00;7351300;19;19926;-58
2023/06/16 10:29:39;;;;;;;;;;;;;;;25.77;38.96;101164.88;7354986;19;19919;-58
2023/06/16 10:32:07;;;;;;;;;;;;;;;25.98;39.07;101200.63;7354468;19;19922;-59
2023/06/16 10:34:46;;;;;;;;;;;;;;;25.96;38.57;101202.56;7356486;19;19927;-60
2023/06/16 10:37:13;;;;;;;;;;;;;;;25.94;39.15;101196.47;7351181;19;20252;-60
2023/06/16 10:39:42;;;;;;;;;;;;;;;25.94;38.64;101193.81;7357128;19;19931;-60
2023/06/16 10:42:08;;;;;;;;;;;;;;;25.94;39.05;101193.81;7357646;19;19929;-60
2023/06/16 10:44:33;;;;;;;;;;;;;;;25.95;39.05;101190.16;7351901;19;21484;-61
2023/06/16 10:47:07;;;;;;;;;;;;;;;25.96;38.53;101188.34;7358462;19;19919;-60
2023/06/16 10:49:43;;;;;;;;;;;;;;;25.97;38.47;101193.56;7357737;19;19934;-60
2023/06/16 10:52:09;;;;;;;;;;;;;;;25.98;38.76;101194.41;7357950;19;19967;-60
2023/06/16 10:54:43;;;;;;;;;;;;;;;25.98;38.55;101194.41;7355419;19;19927;-59
2023/06/16 10:57:12;;;;;;;;;;;;;;;26.00;38.71;101204.00;7356376;19;19921;-60
2023/06/16 10:59:55;;;;;;;;;;;;;;;26.02;38.60;101196.72;7347582;19;20446;-59
2023/06/16 11:02:27;;;;;;;;;;;;;;;26.04;38.59;101197.44;7329766;19;20392;-60
2023/06/16 11:05:08;;;;;;;;;;;;;;;26.05;38.53;101199.13;7356907;19;19915;-60
2023/06/16 11:07:43;;;;;;;;;;;;;;;26.08;38.71;101201.59;7347885;19;19922;-59
2023/06/16 11:10:10;;;;;;;;;;;;;;;26.13;38.87;101203.91;7356939;19;19929;-60
2023/06/16 11:12:35;;;;;;;;;;;;;;;26.20;39.19;101204.25;7346258;19;19943;-59
2023/06/16 11:15:02;;;;;;;;;;;;;;;26.24;38.60;101200.34;7354025;19;19935;-61
2023/06/16 11:17:28;;;;;;;;;;;;;;;26.28;39.03;101204.50;7359909;19;19911;-61
2023/06/16 11:19:57;;;;;;;;;;;;;;;26.30;38.73;101211.41;7350812;19;19921;-60
2023/06/16 11:22:36;;;;;;;;;;;;;;;26.35;39.19;101214.56;7357951;19;19930;-60
2023/06/16 11:25:03;;;;;;;;;;;;;;;26.42;38.77;101214.09;7354738;19;19915;-60
2023/06/16 11:27:29;;;;;;;;;;;;;;;26.44;38.82;101213.00;7355170;19;19930;-59
2023/06/16 11:29:54;;;;;;;;;;;;;;;26.46;39.12;101216.44;7347465;19;19914;-60
2023/06/16 11:32:27;;;;;;;;;;;;;;;26.49;38.38;101221.53;7356065;19;19930;-60
2023/06/16 11:34:55;;;;;;;;;;;;;;;26.49;38.73;101220.66;7354602;19;20002;-59
2023/06/16 11:37:21;;;;;;;;;;;;;;;26.45;38.39;101217.38;7356522;19;19914;-59
2023/06/16 11:39:46;;;;;;;;;;;;;;;26.42;38.84;101220.31;7351647;19;20027;-59
2023/06/16 11:42:12;;;;;;;;;;;;;;;26.38;38.74;101224.19;7352544;19;19931;-58
2023/06/16 11:44:38;;;;;;;;;;;;;;;26.33;37.88;101226.38;7350110;19;19923;-60
2023/06/16 11:47:03;;;;;;;;;;;;;;;26.25;38.56;101228.81;7356468;19;19929;-60
2023/06/16 11:49:28;;;;;;;;;;;;;;;26.17;38.10;101231.28;7354112;19;20424;-59
2023/06/16 11:51:53;;;;;;;;;;;;;;;26.06;38.31;101235.66;7356067;19;19960;-58
2023/06/16 11:54:20;;;;;;;;;;;;;;;25.95;38.58;101235.63;7354447;19;19937;-58
2023/06/16 11:56:48;;;;;;;;;;;;;;;25.81;38.42;101235.91;7357675;19;19923;-59
2023/06/16 11:59:13;;;;;;;;;;;;;;;25.66;38.69;101237.91;7354266;19;19918;-60
2023/06/16 12:01:39;;;;;;;;;;;;;;;25.50;38.74;101222.19;7344737;19;19944;-60
2023/06/16 12:04:05;;;;;;;;;;;;;;;25.35;39.22;101223.38;7353200;19;19927;-59
2023/06/16 12:06:31;;;;;;;;;;;;;;;25.19;39.09;101234.34;7351564;19;19926;-60
2023/06/16 12:08:56;;;;;;;;;;;;;;;25.01;39.17;101223.22;7348606;19;20275;-60
2023/06/16 12:11:27;;;;;;;;;;;;;;;24.83;39.33;101228.09;7344610;19;20428;-59
2023/06/16 12:13:54;;;;;;;;;;;;;;;24.66;40.14;101225.00;7348975;19;20318;-59
2023/06/16 12:16:19;;;;;;;;;;;;;;;24.47;40.58;101226.31;7350597;19;19926;-60
2023/06/16 12:18:47;;;;;;;;;;;;;;;24.28;40.99;101226.78;7349569;19;19984;-59
2023/06/16 12:21:23;;;;;;;;;;;;;;;24.15;41.68;101230.44;7349748;19;19923;-60
2023/06/16 12:23:58;;;;;;;;;;;;;;;24.03;42.20;101227.69;7346220;19;20431;-60
2023/06/16 12:26:24;;;;;;;;;;;;;;;23.96;42.61;101231.72;7349233;19;19926;-60
2023/06/16 12:28:51;;;;;;;;;;;;;;;23.93;43.27;101226.63;7352990;19;19922;-60
2023/06/16 12:31:17;;;;;;;;;;;;;;;23.91;43.20;101223.19;7349370;19;20506;-60